Nearby METAR Reports

 

KBAX - Bad Axe, Michigan, USA
Distance from station: ESE 22mi, 35km
Updated: Sat, 21-Apr-2018 9:35am EDT
Clear
Clear
 Wind from calm
Wind: Calm
Temperature: 43°F , 6°C
Dew Point: 27°F , -3°C
Humidity: 53%
Barometer: 30.49 inHg , 1032.5 hPa
Clouds: Clear
Visibility: 10 miles , 16 km
2018/04/21 13:35 KBAX 211335Z AUTO 00000KT 10SM CLR 06/M03 A3049 RMK AO2 T00641032
KFNT - Flint, Michigan, USA
Distance from station: SSW 68mi, 109km
Updated: Sat, 21-Apr-2018 8:53am EDT
Clear
Clear
 Wind from SSE
Wind: SSE 6 mph , 9 km/h
Temperature: 43°F , 6°C
Wind Chill: 39°F , 4°C
Dew Point: 28°F , -2°C
Humidity: 57%
Barometer: 30.48 inHg , 1032.2 hPa
Clouds: Clear
Visibility: 10 miles , 16 km
2018/04/21 12:53 KFNT 211253Z 16005KT 10SM CLR 06/M02 A3048 RMK AO2 SLP328 T00611017 $
KMBS - Saginaw, Michigan, USA
Distance from station: SW 44mi, 70km
Updated: Sat, 21-Apr-2018 8:53am EDT
Clear
Clear
 Wind from S
Wind: S 8 mph , 13 km/h
Temperature: 43°F , 6°C
Wind Chill: 38°F , 3°C
Dew Point: 30°F , -1°C
Humidity: 61%
Barometer: 30.48 inHg , 1032.2 hPa
Clouds: Clear
Visibility: 10 miles , 16 km
2018/04/21 12:53 KMBS 211253Z 17007KT 10SM CLR 06/M01 A3048 RMK AO2 SLP326 T00561006
 
KDTW - Detroit/Wayne, Michigan, USA
Distance from station: SSE 117mi, 188km
Updated: Sat, 21-Apr-2018 8:53am EDT
Mostly cloudy
Mostly cloudy
 Wind from calm
Wind: Calm
Temperature: 43°F , 6°C
Dew Point: 28°F , -2°C
Humidity: 57%
Barometer: 30.50 inHg , 1032.8 hPa
Clouds: Mostly cloudy
Visibility: 8 miles , 13 km
Cloud details: Mostly cloudy 17000 ft
Mostly cloudy 25000 ft
2018/04/21 12:53 KDTW 211253Z 00000KT 8SM BKN170 BKN250 06/M02 A3050 RMK AO2 SLP330 T00561017
KP58 - Port Hope, Michigan, USA
Distance from station: ENE 30mi, 48km
Updated: Sat, 21-Apr-2018 8:51am EDT

 Wind from NNW
Wind: NNW 3 mph , 6 km/h
Temperature: 39°F , 4°C
Dew Point: 27°F , -3°C
Humidity: 61%
Barometer: 30.47 inHg , 1031.8 hPa
2018/04/21 12:51 KP58 211251Z AUTO 33003KT 04/M03 A3047 RMK AO1 SLP327 T00441028
KCFS - Caro/Tuscola, Michigan, USA
Distance from station: S 31mi, 50km
Updated: Sat, 21-Apr-2018 9:35am EDT
Clear
Clear
 Wind from calm
Wind: Calm
Temperature: 41°F , 5°C
Dew Point: 27°F , -3°C
Humidity: 57%
Barometer: 30.48 inHg , 1032.2 hPa
Clouds: Clear
Visibility: 10 miles , 16 km
2018/04/21 13:35 KCFS 211335Z AUTO 00000KT 10SM CLR 05/M03 A3048 RMK AO2 T00541032
 
KPHN - Port Huron, Michigan, USA
Distance from station: SSE 81mi, 131km
Updated: Sat, 21-Apr-2018 9:35am EDT
Clear
Clear
 Wind from S
Wind: S 3 mph , 6 km/h
Temperature: 41°F , 5°C
Dew Point: 23°F , -5°C
Humidity: 49%
Barometer: 30.50 inHg , 1032.8 hPa
Clouds: Clear
Visibility: 10 miles , 16 km
2018/04/21 13:35 KPHN 211335Z AUTO 19003KT 10SM CLR 05/M05 A3050 RMK AO2
KPTK - Pontiac, Michigan, USA
Distance from station: S 86mi, 138km
Updated: Sat, 21-Apr-2018 8:53am EDT
Overcast
Overcast
 Wind from SSW
Wind: SSW 3 mph , 6 km/h
Temperature: 43°F , 6°C
Dew Point: 28°F , -2°C
Humidity: 57%
Barometer: 30.47 inHg , 1031.8 hPa
Clouds: Overcast
Visibility: 10 miles , 16 km
Cloud details: Partly cloudy 16000 ft
Overcast 22000 ft
2018/04/21 12:53 KPTK 211253Z 20003KT 10SM SCT160 OVC220 06/M02 A3047 RMK AO2 SLP324 T00611017
KMTC - Selfridge Angb, Michigan, USA
Distance from station: SSE 94mi, 151km
Updated: Sat, 21-Apr-2018 8:56am EDT
Overcast
Overcast
 Wind from calm
Wind: Calm
Temperature: 39°F , 4°C
Dew Point: 36°F , 2°C
Humidity: 87%
Barometer: 30.48 inHg , 1032.2 hPa
Clouds: Overcast
Visibility: 10 miles , 16 km
Cloud details: Few Clouds 17000 ft
Overcast 25000 ft
2018/04/21 12:56 KMTC 211256Z 00000KT 10SM FEW170 OVC250 04/02 A3048 RMK AO2A SLP331 ALSTG/SLP ESTMD T00350019 $